Time;durP1;ratioP1;P1;durP2;ratioP2;P2;SDS_P1;SDS_P2;PMS_P1;PMS_P2;Temp;Humidity;BMP_temperature;BMP_pressure;BME280_temperature;BME280_humidity;BME280_pressure;Samples;Min_cycle;Max_cycle;Signal;HPM_P1;HPM_P2
2021/04/20 00:00:59;;;;;;;40.42;16.20;;;;;;;;;;5090724;28;20051;-86
2021/04/20 00:03:26;;;;;;;40.35;16.88;;;;;;;;;;5094859;28;20071;-87
2021/04/20 00:05:52;;;;;;;39.65;16.83;;;;;;;;;;5093527;28;20407;-87
2021/04/20 00:08:18;;;;;;;35.67;15.82;;;;;;;;;;5076151;28;20020;-86
2021/04/20 00:10:45;;;;;;;40.33;16.25;;;;;;;;;;5092918;28;20027;-85
2021/04/20 00:13:12;;;;;;;44.55;17.60;;;;;;;;;;5094191;28;20476;-86
2021/04/20 00:15:38;;;;;;;35.70;16.08;;;;;;;;;;5092337;28;20031;-87
2021/04/20 00:18:06;;;;;;;48.65;19.52;;;;;;;;;;5092672;28;20492;-88
2021/04/20 00:20:32;;;;;;;50.15;18.73;;;;;;;;;;5092403;28;20020;-86
2021/04/20 00:22:59;;;;;;;47.60;18.02;;;;;;;;;;5093983;28;20034;-86
2021/04/20 00:25:25;;;;;;;44.25;17.27;;;;;;;;;;5092509;28;20025;-86
2021/04/20 00:27:51;;;;;;;44.08;17.60;;;;;;;;;;5075747;28;20032;-85
2021/04/20 00:30:18;;;;;;;43.97;17.55;;;;;;;;;;5093784;28;20031;-85
2021/04/20 00:32:45;;;;;;;38.88;16.25;;;;;;;;;;5094173;28;20522;-86
2021/04/20 00:35:11;;;;;;;43.33;17.95;;;;;;;;;;5092343;28;20476;-86
2021/04/20 00:37:38;;;;;;;38.22;18.20;;;;;;;;;;5094280;28;20062;-86
2021/04/20 00:40:05;;;;;;;45.33;18.50;;;;;;;;;;5093619;28;20021;-85
2021/04/20 00:42:32;;;;;;;38.97;16.50;;;;;;;;;;5093615;28;20024;-86
2021/04/20 00:44:58;;;;;;;43.95;16.80;;;;;;;;;;5094159;28;20024;-86
2021/04/20 00:47:24;;;;;;;40.25;16.65;;;;;;;;;;5093979;28;20107;-86
2021/04/20 00:49:51;;;;;;;40.30;16.73;;;;;;;;;;5093857;28;20035;-86
2021/04/20 00:52:17;;;;;;;41.67;18.65;;;;;;;;;;5092269;28;20119;-85
2021/04/20 00:54:43;;;;;;;50.72;20.15;;;;;;;;;;5075541;28;20077;-87
2021/04/20 00:57:10;;;;;;;52.38;19.58;;;;;;;;;;5092355;28;20096;-89
2021/04/20 00:59:36;;;;;;;51.08;19.42;;;;;;;;;;5092490;28;20070;-86
2021/04/20 01:02:02;;;;;;;46.50;18.90;;;;;;;;;;5085896;28;20051;-86
2021/04/20 01:04:29;;;;;;;42.25;18.58;;;;;;;;;;5092684;28;20016;-88
2021/04/20 01:06:55;;;;;;;46.90;19.85;;;;;;;;;;5092393;28;20038;-88
2021/04/20 01:09:22;;;;;;;42.55;17.75;;;;;;;;;;5092180;28;20032;-87
2021/04/20 01:11:48;;;;;;;51.63;20.48;;;;;;;;;;5092614;28;20047;-88
2021/04/20 01:14:15;;;;;;;41.55;17.75;;;;;;;;;;5092500;28;20032;-89
2021/04/20 01:16:41;;;;;;;43.00;18.00;;;;;;;;;;5092534;28;20473;-87
2021/04/20 01:19:09;;;;;;;48.13;19.20;;;;;;;;;;5092384;28;20060;-88
2021/04/20 01:21:37;;;;;;;48.95;18.67;;;;;;;;;;5092462;28;20066;-87
2021/04/20 01:24:03;;;;;;;45.28;18.20;;;;;;;;;;5092604;28;20369;-87
2021/04/20 01:26:34;;;;;;;43.63;18.08;;;;;;;;;;5094106;28;20036;-87
2021/04/20 01:29:01;;;;;;;45.28;18.38;;;;;;;;;;5096130;28;20025;-87
2021/04/20 01:31:28;;;;;;;40.22;16.65;;;;;;;;;;5096912;28;20345;-86
2021/04/20 01:33:55;;;;;;;54.85;19.10;;;;;;;;;;5095652;28;20027;-87
2021/04/20 01:36:22;;;;;;;48.42;18.58;;;;;;;;;;5096027;28;20024;-89
2021/04/20 01:38:49;;;;;;;45.50;18.98;;;;;;;;;;5095792;28;20032;-87
2021/04/20 01:41:15;;;;;;;46.65;18.35;;;;;;;;;;5096566;28;20028;-87
2021/04/20 01:43:42;;;;;;;45.55;19.05;;;;;;;;;;5096012;28;20115;-87
2021/04/20 01:46:08;;;;;;;41.80;18.63;;;;;;;;;;5095589;28;20110;-87
2021/04/20 01:48:35;;;;;;;42.60;18.15;;;;;;;;;;5097069;28;20085;-86
2021/04/20 01:51:02;;;;;;;50.97;19.10;;;;;;;;;;5095891;28;20020;-87
2021/04/20 01:53:29;;;;;;;40.60;17.17;;;;;;;;;;5096721;28;20063;-87
2021/04/20 01:55:59;;;;;;;44.85;17.83;;;;;;;;;;5095586;28;20031;-88
2021/04/20 01:58:26;;;;;;;44.35;18.30;;;;;;;;;;5095160;28;20047;-86
2021/04/20 02:00:53;;;;;;;48.90;18.92;;;;;;;;;;5094415;28;20075;-87
2021/04/20 02:03:19;;;;;;;49.90;18.38;;;;;;;;;;5095945;28;20028;-87
2021/04/20 02:05:45;;;;;;;39.63;17.38;;;;;;;;;;5096460;28;20051;-87
2021/04/20 02:08:12;;;;;;;46.85;18.92;;;;;;;;;;5095146;28;20468;-86
2021/04/20 02:10:39;;;;;;;43.88;17.83;;;;;;;;;;5095010;28;20027;-87
2021/04/20 02:13:05;;;;;;;46.85;18.50;;;;;;;;;;5095239;28;20036;-85
2021/04/20 02:15:31;;;;;;;50.05;17.70;;;;;;;;;;5078589;28;20476;-87
2021/04/20 02:17:58;;;;;;;42.70;17.05;;;;;;;;;;5095255;28;20514;-87
2021/04/20 02:20:25;;;;;;;54.58;19.40;;;;;;;;;;5097998;28;20365;-87
2021/04/20 02:22:51;;;;;;;49.92;18.85;;;;;;;;;;5096655;28;20028;-87
2021/04/20 02:25:19;;;;;;;50.40;19.23;;;;;;;;;;5095082;28;20043;-86
2021/04/20 02:27:49;;;;;;;42.85;16.85;;;;;;;;;;5094842;28;20036;-87
2021/04/20 02:30:16;;;;;;;47.42;19.17;;;;;;;;;;5078263;28;20023;-87
2021/04/20 02:32:42;;;;;;;44.70;18.17;;;;;;;;;;5094977;28;20028;-87
2021/04/20 02:35:11;;;;;;;47.50;18.58;;;;;;;;;;5094881;28;20024;-88
2021/04/20 02:37:38;;;;;;;45.30;17.27;;;;;;;;;;5095626;28;20368;-87
2021/04/20 02:40:05;;;;;;;42.80;16.25;;;;;;;;;;5077681;28;20020;-87
2021/04/20 02:42:35;;;;;;;36.95;16.40;;;;;;;;;;5096109;28;20024;-87
2021/04/20 02:45:02;;;;;;;43.75;17.35;;;;;;;;;;5094451;28;20089;-86
2021/04/20 02:47:29;;;;;;;53.70;19.13;;;;;;;;;;5094437;28;20113;-87
2021/04/20 02:49:56;;;;;;;55.60;21.98;;;;;;;;;;5077691;28;20032;-87
2021/04/20 02:52:24;;;;;;;60.58;21.38;;;;;;;;;;5077661;28;20031;-86
2021/04/20 02:54:51;;;;;;;56.90;22.08;;;;;;;;;;5095972;28;20468;-86
2021/04/20 02:57:18;;;;;;;55.38;20.42;;;;;;;;;;5094219;28;20153;-86
2021/04/20 02:59:45;;;;;;;54.38;21.48;;;;;;;;;;5094054;28;20459;-86
2021/04/20 03:02:12;;;;;;;51.63;20.73;;;;;;;;;;5088736;28;20542;-86
2021/04/20 03:04:39;;;;;;;49.67;19.08;;;;;;;;;;5094408;28;20028;-86
2021/04/20 03:07:06;;;;;;;57.70;19.73;;;;;;;;;;5094018;28;20533;-87
2021/04/20 03:09:32;;;;;;;51.45;20.67;;;;;;;;;;5093767;28;20035;-86
2021/04/20 03:11:59;;;;;;;56.33;21.30;;;;;;;;;;5094080;28;20059;-86
2021/04/20 03:14:28;;;;;;;54.85;19.00;;;;;;;;;;5093870;28;20020;-86
2021/04/20 03:16:55;;;;;;;58.10;19.77;;;;;;;;;;5093514;28;20447;-87
2021/04/20 03:19:21;;;;;;;58.75;20.48;;;;;;;;;;5093644;28;20024;-86
2021/04/20 03:21:49;;;;;;;52.10;20.45;;;;;;;;;;5093526;28;20114;-88
2021/04/20 03:24:35;;;;;;;53.13;19.85;;;;;;;;;;5095057;28;20031;-88
2021/04/20 03:27:02;;;;;;;51.72;18.02;;;;;;;;;;5063108;28;20036;-88
2021/04/20 03:29:28;;;;;;;45.85;18.02;;;;;;;;;;5093580;28;20027;-87
2021/04/20 03:31:54;;;;;;;54.10;19.13;;;;;;;;;;5093449;28;20020;-85
2021/04/20 03:34:25;;;;;;;53.05;20.48;;;;;;;;;;5093475;28;20119;-85
2021/04/20 03:37:11;;;;;;;48.15;20.67;;;;;;;;;;5093187;28;20480;-86
2021/04/20 03:39:39;;;;;;;51.20;18.48;;;;;;;;;;5093541;28;20392;-86
2021/04/20 03:42:08;;;;;;;48.40;18.35;;;;;;;;;;5093339;28;20024;-86
2021/04/20 03:44:41;;;;;;;49.90;19.65;;;;;;;;;;5093228;28;20082;-87
2021/04/20 03:47:09;;;;;;;53.05;20.08;;;;;;;;;;5093447;28;20032;-87
2021/04/20 03:49:39;;;;;;;48.35;19.95;;;;;;;;;;5092676;28;20039;-87
2021/04/20 03:52:11;;;;;;;48.97;18.60;;;;;;;;;;5093523;28;20024;-87
2021/04/20 03:54:38;;;;;;;55.42;20.67;;;;;;;;;;5093148;28;20384;-86
2021/04/20 03:57:04;;;;;;;54.05;20.42;;;;;;;;;;5093751;28;20032;-87
2021/04/20 03:59:32;;;;;;;48.70;19.92;;;;;;;;;;5093030;28;20024;-87
2021/04/20 04:01:59;;;;;;;53.65;20.88;;;;;;;;;;5093011;28;20392;-87
2021/04/20 04:04:27;;;;;;;46.72;18.30;;;;;;;;;;5094283;28;20016;-87
2021/04/20 04:06:55;;;;;;;50.13;18.83;;;;;;;;;;5093528;28;20051;-87
2021/04/20 04:09:21;;;;;;;44.22;17.20;;;;;;;;;;5093294;28;20074;-87
2021/04/20 04:11:59;;;;;;;45.28;19.40;;;;;;;;;;5092713;28;20031;-87
2021/04/20 04:14:27;;;;;;;53.67;20.17;;;;;;;;;;5092858;28;20111;-87
2021/04/20 04:16:58;;;;;;;51.60;21.10;;;;;;;;;;5092610;28;20165;-87
2021/04/20 04:19:27;;;;;;;54.55;20.42;;;;;;;;;;5093933;28;20024;-87
2021/04/20 04:21:57;;;;;;;57.20;20.33;;;;;;;;;;5092796;28;20023;-87
2021/04/20 04:24:24;;;;;;;62.85;22.33;;;;;;;;;;5092687;28;20028;-87
2021/04/20 04:26:53;;;;;;;58.63;21.80;;;;;;;;;;5092600;28;20115;-87
2021/04/20 04:29:20;;;;;;;65.60;22.25;;;;;;;;;;5092722;28;20028;-87
2021/04/20 04:31:48;;;;;;;63.65;22.02;;;;;;;;;;5094908;28;20028;-87
2021/04/20 04:34:16;;;;;;;54.53;22.02;;;;;;;;;;5094429;28;20137;-87
2021/04/20 04:36:42;;;;;;;56.40;21.38;;;;;;;;;;5092689;28;20060;-87
2021/04/20 04:39:16;;;;;;;62.40;22.00;;;;;;;;;;5092450;28;20036;-87
2021/04/20 04:41:49;;;;;;;52.78;20.55;;;;;;;;;;5092929;28;20028;-87
2021/04/20 04:44:16;;;;;;;58.85;20.40;;;;;;;;;;5092432;28;20025;-87
2021/04/20 04:46:43;;;;;;;51.95;20.27;;;;;;;;;;5092902;28;20024;-87
2021/04/20 04:49:10;;;;;;;63.10;22.40;;;;;;;;;;5092693;28;20032;-87
2021/04/20 04:51:38;;;;;;;53.35;19.60;;;;;;;;;;5092945;28;20388;-87
2021/04/20 04:54:06;;;;;;;51.15;19.77;;;;;;;;;;5092484;28;20020;-87
2021/04/20 04:56:33;;;;;;;51.83;20.85;;;;;;;;;;5093620;28;20028;-86
2021/04/20 04:59:00;;;;;;;46.25;19.17;;;;;;;;;;5093864;28;20039;-85
2021/04/20 05:01:26;;;;;;;55.53;21.25;;;;;;;;;;5091566;28;20036;-85
2021/04/20 05:03:53;;;;;;;45.13;19.55;;;;;;;;;;5096571;28;20172;-86
2021/04/20 05:06:21;;;;;;;44.85;17.77;;;;;;;;;;5099519;28;20024;-86
2021/04/20 05:08:48;;;;;;;46.85;18.90;;;;;;;;;;5118373;28;20066;-87
2021/04/20 05:11:14;;;;;;;44.08;16.52;;;;;;;;;;5099403;28;20061;-87
2021/04/20 05:13:41;;;;;;;40.15;18.42;;;;;;;;;;5096712;28;20024;-86
2021/04/20 05:16:07;;;;;;;44.85;18.48;;;;;;;;;;5098231;28;20025;-86
2021/04/20 05:18:42;;;;;;;41.67;18.63;;;;;;;;;;5097987;28;20036;-87
2021/04/20 05:21:08;;;;;;;39.88;17.70;;;;;;;;;;5099158;28;20123;-87
2021/04/20 05:23:35;;;;;;;38.67;16.33;;;;;;;;;;5099523;28;20045;-86
2021/04/20 05:26:01;;;;;;;37.97;17.80;;;;;;;;;;5099433;28;20464;-86
2021/04/20 05:28:27;;;;;;;41.15;17.98;;;;;;;;;;5118148;28;20020;-87
2021/04/20 05:30:54;;;;;;;34.17;17.52;;;;;;;;;;5099685;28;20031;-86
2021/04/20 05:33:20;;;;;;;37.78;16.58;;;;;;;;;;5109158;28;20072;-87
2021/04/20 05:35:47;;;;;;;39.88;17.70;;;;;;;;;;5095517;28;20059;-86
2021/04/20 05:38:13;;;;;;;32.53;16.58;;;;;;;;;;5096453;28;20435;-85
2021/04/20 05:40:41;;;;;;;34.13;16.38;;;;;;;;;;5095813;28;20024;-85
2021/04/20 05:43:07;;;;;;;35.45;16.45;;;;;;;;;;5095503;28;20028;-85
2021/04/20 05:45:34;;;;;;;33.42;16.70;;;;;;;;;;5096366;28;20024;-85
2021/04/20 05:48:01;;;;;;;30.88;16.85;;;;;;;;;;5095074;28;20036;-85
2021/04/20 05:50:31;;;;;;;32.08;17.05;;;;;;;;;;5095382;28;20031;-84
2021/04/20 05:52:58;;;;;;;32.78;16.92;;;;;;;;;;5095580;28;20115;-84
2021/04/20 05:55:25;;;;;;;32.90;16.48;;;;;;;;;;5094913;28;20024;-85
2021/04/20 05:57:52;;;;;;;28.67;16.13;;;;;;;;;;5095930;28;20089;-85
2021/04/20 06:00:19;;;;;;;31.63;17.70;;;;;;;;;;5095127;28;20028;-83
2021/04/20 06:02:46;;;;;;;31.05;15.93;;;;;;;;;;5098174;28;20407;-84
2021/04/20 06:05:14;;;;;;;31.60;17.10;;;;;;;;;;5098195;28;20035;-85
2021/04/20 06:07:45;;;;;;;27.38;15.77;;;;;;;;;;5097973;28;20376;-85
2021/04/20 06:10:16;;;;;;;34.15;17.08;;;;;;;;;;5099064;28;20031;-86
2021/04/20 06:12:42;;;;;;;38.55;19.17;;;;;;;;;;5097953;28;20106;-86
2021/04/20 06:15:09;;;;;;;33.25;17.23;;;;;;;;;;5098579;28;20022;-85
2021/04/20 06:17:39;;;;;;;32.33;17.27;;;;;;;;;;5098079;28;20086;-85
2021/04/20 06:20:06;;;;;;;31.85;17.38;;;;;;;;;;5116805;28;20072;-86
2021/04/20 06:22:34;;;;;;;37.33;16.70;;;;;;;;;;5116897;28;20138;-86
2021/04/20 06:25:00;;;;;;;33.92;17.10;;;;;;;;;;5097920;28;20028;-85
2021/04/20 06:27:27;;;;;;;36.95;19.17;;;;;;;;;;5115944;28;20092;-85
2021/04/20 06:29:54;;;;;;;37.55;19.65;;;;;;;;;;5116077;28;20055;-83
2021/04/20 06:32:21;;;;;;;26.77;15.75;;;;;;;;;;5097661;28;20475;-83
2021/04/20 06:34:47;;;;;;;33.53;17.05;;;;;;;;;;5097797;28;20156;-83
2021/04/20 06:37:14;;;;;;;28.17;15.30;;;;;;;;;;5097554;28;20379;-86
2021/04/20 06:39:41;;;;;;;36.97;16.42;;;;;;;;;;5097816;28;20118;-85
2021/04/20 06:42:09;;;;;;;28.63;15.40;;;;;;;;;;5098021;28;20035;-85
2021/04/20 06:44:43;;;;;;;25.17;14.55;;;;;;;;;;5097812;28;20024;-83
2021/04/20 06:47:19;;;;;;;25.10;14.82;;;;;;;;;;5115987;28;20023;-86
2021/04/20 06:49:53;;;;;;;24.38;14.13;;;;;;;;;;5097379;28;20027;-84
2021/04/20 06:52:51;;;;;;;25.85;14.77;;;;;;;;;;5115707;28;20031;-83
2021/04/20 06:55:40;;;;;;;26.25;15.35;;;;;;;;;;5016740;28;20124;-84
2021/04/20 06:58:18;;;;;;;30.02;16.23;;;;;;;;;;5040015;28;20035;-85
2021/04/20 07:00:53;;;;;;;22.65;14.88;;;;;;;;;;5097263;28;20079;-85
2021/04/20 07:03:22;;;;;;;27.95;15.95;;;;;;;;;;5097536;28;20544;-85
2021/04/20 07:06:03;;;;;;;29.70;16.10;;;;;;;;;;5097483;28;20418;-85
2021/04/20 07:08:33;;;;;;;34.40;18.05;;;;;;;;;;5097226;28;20108;-85
2021/04/20 07:11:00;;;;;;;28.90;16.13;;;;;;;;;;5080064;28;20490;-86
2021/04/20 07:13:29;;;;;;;28.52;16.30;;;;;;;;;;5076653;28;20053;-86
2021/04/20 07:16:06;;;;;;;25.85;14.70;;;;;;;;;;5076904;28;20032;-84
2021/04/20 07:18:38;;;;;;;28.73;15.05;;;;;;;;;;5094671;28;20055;-84
2021/04/20 07:21:20;;;;;;;27.80;15.77;;;;;;;;;;5076754;28;20032;-84
2021/04/20 07:24:04;;;;;;;28.42;14.70;;;;;;;;;;5076188;28;20404;-85
2021/04/20 07:26:46;;;;;;;26.33;14.48;;;;;;;;;;5076194;28;20115;-84
2021/04/20 07:29:12;;;;;;;27.48;14.32;;;;;;;;;;5080460;28;20043;-85
2021/04/20 07:31:48;;;;;;;27.05;14.52;;;;;;;;;;5076784;28;20048;-83
2021/04/20 07:34:20;;;;;;;26.52;13.88;;;;;;;;;;5076120;28;20082;-84
2021/04/20 07:36:46;;;;;;;26.93;13.17;;;;;;;;;;5090342;28;20021;-83
2021/04/20 07:39:20;;;;;;;26.25;12.85;;;;;;;;;;5076051;28;20266;-84
2021/04/20 07:42:05;;;;;;;26.48;13.20;;;;;;;;;;5076621;28;20027;-84
2021/04/20 07:45:06;;;;;;;25.92;13.30;;;;;;;;;;5076040;28;20024;-84
2021/04/20 07:47:39;;;;;;;23.20;13.02;;;;;;;;;;5012100;28;20048;-84
2021/04/20 07:50:24;;;;;;;25.60;13.70;;;;;;;;;;5063342;28;20095;-84
2021/04/20 07:53:09;;;;;;;22.50;12.23;;;;;;;;;;5094055;28;20024;-85
2021/04/20 07:55:42;;;;;;;22.15;12.98;;;;;;;;;;5076405;28;20055;-87
2021/04/20 07:58:10;;;;;;;24.85;13.10;;;;;;;;;;5076182;28;20028;-83
2021/04/20 08:00:38;;;;;;;20.70;12.55;;;;;;;;;;5077667;28;20030;-83
2021/04/20 08:03:08;;;;;;;24.60;14.68;;;;;;;;;;5096390;28;20035;-85
2021/04/20 08:05:42;;;;;;;24.92;13.57;;;;;;;;;;5096067;28;20020;-83
2021/04/20 08:08:28;;;;;;;21.75;12.93;;;;;;;;;;5114473;28;20042;-83
2021/04/20 08:11:00;;;;;;;25.27;13.57;;;;;;;;;;5095795;28;20028;-83
2021/04/20 08:13:38;;;;;;;24.33;12.63;;;;;;;;;;5095356;28;20040;-84
2021/04/20 08:16:11;;;;;;;24.58;13.50;;;;;;;;;;5095737;28;20030;-84
2021/04/20 08:18:51;;;;;;;24.52;13.88;;;;;;;;;;5096639;28;20096;-83
2021/04/20 08:21:18;;;;;;;28.73;14.30;;;;;;;;;;5095991;28;20487;-83
2021/04/20 08:23:47;;;;;;;26.23;14.50;;;;;;;;;;5095678;28;20047;-83
2021/04/20 08:26:27;;;;;;;27.13;13.98;;;;;;;;;;5095759;28;20034;-84
2021/04/20 08:29:16;;;;;;;27.30;14.77;;;;;;;;;;5095672;28;20036;-86
2021/04/20 08:31:54;;;;;;;27.75;14.13;;;;;;;;;;5103872;28;20033;-84
2021/04/20 08:34:23;;;;;;;30.50;14.82;;;;;;;;;;5115829;28;20031;-85
2021/04/20 08:36:55;;;;;;;24.08;13.35;;;;;;;;;;5116106;27;20019;-83
2021/04/20 08:39:42;;;;;;;22.58;12.55;;;;;;;;;;5116322;28;20375;-84
2021/04/20 08:42:23;;;;;;;24.88;12.02;;;;;;;;;;5081962;28;20042;-84
2021/04/20 08:44:54;;;;;;;27.48;12.55;;;;;;;;;;5116234;28;20479;-84
2021/04/20 08:47:34;;;;;;;22.30;12.35;;;;;;;;;;5115667;28;20031;-84
2021/04/20 08:50:09;;;;;;;19.95;10.90;;;;;;;;;;5115963;28;20096;-83
2021/04/20 08:52:37;;;;;;;23.00;11.75;;;;;;;;;;5115944;28;20023;-86
2021/04/20 08:55:12;;;;;;;23.33;11.85;;;;;;;;;;5134047;28;20023;-83
2021/04/20 08:57:47;;;;;;;20.35;10.93;;;;;;;;;;5115591;28;20483;-85
2021/04/20 09:00:20;;;;;;;20.95;12.02;;;;;;;;;;5115264;28;20016;-86
2021/04/20 09:03:05;;;;;;;24.00;12.65;;;;;;;;;;5115315;28;20054;-84
2021/04/20 09:05:33;;;;;;;27.42;13.95;;;;;;;;;;5115899;28;20019;-84
2021/04/20 09:08:15;;;;;;;18.42;10.98;;;;;;;;;;5115655;28;20083;-84
2021/04/20 09:10:52;;;;;;;17.45;10.43;;;;;;;;;;5115942;28;20375;-84
2021/04/20 09:13:22;;;;;;;19.40;11.00;;;;;;;;;;5115756;28;20023;-86
2021/04/20 09:15:56;;;;;;;18.50;10.35;;;;;;;;;;5115548;28;20114;-88
2021/04/20 09:18:26;;;;;;;18.35;9.80;;;;;;;;;;5115524;28;20027;-83
2021/04/20 09:20:57;;;;;;;15.25;8.30;;;;;;;;;;5116146;28;20164;-85
2021/04/20 09:23:30;;;;;;;16.50;9.77;;;;;;;;;;5115381;28;20024;-84
2021/04/20 09:25:56;;;;;;;;;;;;;;;;;;5115631;28;20027;-84
2021/04/20 09:28:30;;;;;;;14.38;8.65;;;;;;;;;;5115690;28;19918;-83
2021/04/20 09:31:05;;;;;;;11.10;7.15;;;;;;;;;;5113389;28;20019;-82
2021/04/20 09:33:34;;;;;;;14.40;8.95;;;;;;;;;;5095630;28;20062;-85
2021/04/20 09:36:01;;;;;;;28.15;12.35;;;;;;;;;;5113983;28;20027;-85
2021/04/20 09:38:27;;;;;;;33.85;14.25;;;;;;;;;;5098033;28;20110;-86
2021/04/20 09:40:54;;;;;;;16.60;8.75;;;;;;;;;;5095024;28;20050;-85
2021/04/20 09:43:23;;;;;;;13.65;7.35;;;;;;;;;;5095563;28;20364;-82
2021/04/20 09:45:56;;;;;;;17.80;9.63;;;;;;;;;;5094900;28;20041;-87
2021/04/20 09:48:22;;;;;;;;;;;;;;;;;;5096803;28;20092;-84
2021/04/20 09:51:12;;;;;;;12.07;7.22;;;;;;;;;;5117143;28;19907;-84
2021/04/20 09:53:41;;;;;;;13.45;7.25;;;;;;;;;;5101033;28;20032;-87
2021/04/20 09:56:19;;;;;;;14.80;6.70;;;;;;;;;;5098462;28;20020;-86
2021/04/20 09:58:47;;;;;;;11.27;7.07;;;;;;;;;;5098463;28;20084;-85
2021/04/20 10:01:17;;;;;;;11.32;7.00;;;;;;;;;;5097989;28;20074;-86
2021/04/20 10:03:53;;;;;;;11.90;7.13;;;;;;;;;;5098874;28;20059;-87
2021/04/20 10:06:26;;;;;;;11.40;7.68;;;;;;;;;;5098618;28;20035;-86
2021/04/20 10:09:03;;;;;;;11.73;7.45;;;;;;;;;;5098253;28;20039;-86
2021/04/20 10:11:41;;;;;;;15.15;7.47;;;;;;;;;;5098162;28;20031;-85
2021/04/20 10:14:26;;;;;;;11.73;6.93;;;;;;;;;;5098262;28;20031;-86
2021/04/20 10:17:16;;;;;;;12.50;7.20;;;;;;;;;;5122592;28;20024;-85
2021/04/20 10:19:51;;;;;;;12.43;6.97;;;;;;;;;;5098102;28;20031;-87
2021/04/20 10:22:24;;;;;;;14.52;7.93;;;;;;;;;;5098371;28;20031;-86
2021/04/20 10:25:19;;;;;;;15.23;7.87;;;;;;;;;;5116608;28;20028;-82
2021/04/20 10:27:47;;;;;;;14.00;7.18;;;;;;;;;;5096398;28;20688;-83
2021/04/20 10:30:16;;;;;;;11.80;6.75;;;;;;;;;;5098265;28;20380;-83
2021/04/20 10:32:50;;;;;;;13.82;6.97;;;;;;;;;;5114593;27;20026;-89
2021/04/20 10:35:32;;;;;;;11.35;6.13;;;;;;;;;;5118223;27;20019;-84
2021/04/20 10:38:00;;;;;;;13.27;6.78;;;;;;;;;;5118654;27;20106;-87
2021/04/20 10:40:31;;;;;;;12.57;6.80;;;;;;;;;;5118315;27;20079;-87
2021/04/20 10:43:02;;;;;;;10.25;6.07;;;;;;;;;;5118628;27;20050;-88
2021/04/20 10:45:28;;;;;;;17.75;8.18;;;;;;;;;;5118826;27;20023;-81
2021/04/20 10:47:56;;;;;;;14.98;7.50;;;;;;;;;;5136317;27;20035;-82
2021/04/20 10:50:24;;;;;;;18.40;10.93;;;;;;;;;;5118309;27;20034;-85
2021/04/20 10:53:09;;;;;;;17.38;7.82;;;;;;;;;;5118858;27;20464;-83
2021/04/20 10:55:37;;;;;;;11.48;7.13;;;;;;;;;;5136596;27;20387;-86
2021/04/20 10:58:05;;;;;;;14.80;6.35;;;;;;;;;;5118335;27;20015;-85
2021/04/20 11:00:33;;;;;;;11.18;6.38;;;;;;;;;;5117479;27;20035;-83
2021/04/20 11:03:00;;;;;;;15.98;6.50;;;;;;;;;;5098002;28;20039;-88
2021/04/20 11:05:28;;;;;;;11.00;5.93;;;;;;;;;;5115515;28;20483;-88
2021/04/20 11:07:55;;;;;;;13.45;6.63;;;;;;;;;;5097369;28;20031;-87
2021/04/20 11:10:26;;;;;;;14.07;5.90;;;;;;;;;;5097363;28;20034;-87
2021/04/20 11:12:53;;;;;;;12.63;6.50;;;;;;;;;;5097939;28;20479;-83
2021/04/20 11:15:24;;;;;;;12.35;5.43;;;;;;;;;;5097781;28;20024;-85
2021/04/20 11:17:58;;;;;;;12.52;5.90;;;;;;;;;;5098038;28;20031;-82
2021/04/20 11:20:34;;;;;;;12.07;6.68;;;;;;;;;;5097848;28;20053;-85
2021/04/20 11:23:26;;;;;;;11.40;6.60;;;;;;;;;;5098220;28;20050;-86
2021/04/20 11:25:53;;;;;;;12.90;6.57;;;;;;;;;;5094376;28;20096;-85
2021/04/20 11:28:46;;;;;;;15.52;7.40;;;;;;;;;;5099767;28;20138;-85
2021/04/20 11:31:12;;;;;;;21.17;6.78;;;;;;;;;;5093165;28;20023;-86
2021/04/20 11:33:38;;;;;;;15.80;6.68;;;;;;;;;;5077064;28;20031;-86
2021/04/20 11:36:07;;;;;;;13.40;6.93;;;;;;;;;;5076502;28;20476;-86
2021/04/20 11:38:45;;;;;;;15.68;7.25;;;;;;;;;;5078461;28;20028;-86
2021/04/20 11:41:12;;;;;;;15.60;7.53;;;;;;;;;;5081618;28;20073;-84
2021/04/20 11:43:39;;;;;;;13.07;6.82;;;;;;;;;;5076497;28;20028;-82
2021/04/20 11:46:07;;;;;;;14.18;6.95;;;;;;;;;;5076095;28;20031;-83
2021/04/20 11:48:35;;;;;;;14.68;7.28;;;;;;;;;;5076217;28;20039;-86
2021/04/20 11:51:02;;;;;;;12.60;7.35;;;;;;;;;;5076659;28;20020;-82
2021/04/20 11:53:29;;;;;;;13.75;7.15;;;;;;;;;;5075682;28;20032;-86
2021/04/20 11:55:57;;;;;;;12.63;6.68;;;;;;;;;;5076065;28;20107;-86
2021/04/20 11:58:27;;;;;;;14.02;6.35;;;;;;;;;;5076705;28;20028;-89
2021/04/20 12:00:58;;;;;;;12.00;6.53;;;;;;;;;;5077659;28;20389;-81
2021/04/20 12:03:25;;;;;;;15.88;7.07;;;;;;;;;;5096271;28;20036;-81
2021/04/20 12:05:55;;;;;;;13.57;6.68;;;;;;;;;;5096410;28;20051;-89
2021/04/20 12:08:23;;;;;;;10.23;5.47;;;;;;;;;;5096085;28;20475;-82
2021/04/20 12:10:52;;;;;;;10.30;4.90;;;;;;;;;;5114046;28;20027;-82
2021/04/20 12:13:33;;;;;;;11.55;6.32;;;;;;;;;;5096071;28;20024;-82
2021/04/20 12:16:01;;;;;;;10.15;5.50;;;;;;;;;;5099397;28;20023;-84
2021/04/20 12:18:29;;;;;;;13.45;5.65;;;;;;;;;;5096825;28;20069;-82
2021/04/20 12:20:59;;;;;;;10.48;5.28;;;;;;;;;;5099150;28;20028;-82
2021/04/20 12:23:26;;;;;;;13.27;6.22;;;;;;;;;;5095812;28;20053;-82
2021/04/20 12:25:53;;;;;;;9.82;5.68;;;;;;;;;;5096302;28;20024;-82
2021/04/20 12:28:20;;;;;;;9.20;5.03;;;;;;;;;;5114064;28;20114;-86
2021/04/20 12:30:47;;;;;;;11.85;5.60;;;;;;;;;;5114211;28;20015;-82
2021/04/20 12:33:21;;;;;;;11.40;4.93;;;;;;;;;;5095971;28;20052;-83
2021/04/20 12:35:47;;;;;;;10.88;5.50;;;;;;;;;;5096060;28;20024;-83
2021/04/20 12:38:13;;;;;;;14.25;5.25;;;;;;;;;;5114107;28;20033;-85
2021/04/20 12:40:40;;;;;;;11.65;5.28;;;;;;;;;;5095925;28;20417;-85
2021/04/20 12:43:06;;;;;;;11.98;6.03;;;;;;;;;;5114112;28;20172;-84
2021/04/20 12:45:37;;;;;;;10.48;5.50;;;;;;;;;;5114042;28;20023;-87
2021/04/20 12:48:05;;;;;;;11.25;5.15;;;;;;;;;;5095798;28;20051;-84
2021/04/20 12:50:34;;;;;;;12.20;5.65;;;;;;;;;;5114543;28;20538;-87
2021/04/20 12:53:07;;;;;;;12.18;5.47;;;;;;;;;;5095558;28;20027;-83
2021/04/20 12:55:34;;;;;;;13.07;5.60;;;;;;;;;;5114254;28;20057;-86
2021/04/20 12:58:06;;;;;;;8.82;5.25;;;;;;;;;;5113781;28;20308;-83
2021/04/20 13:00:34;;;;;;;12.77;6.50;;;;;;;;;;5096677;28;20020;-86
2021/04/20 13:03:01;;;;;;;10.98;6.10;;;;;;;;;;5095388;28;20055;-84
2021/04/20 13:05:30;;;;;;;9.55;5.25;;;;;;;;;;5095753;28;20114;-86
2021/04/20 13:08:01;;;;;;;12.73;6.32;;;;;;;;;;5095768;28;20036;-85
2021/04/20 13:10:27;;;;;;;9.90;5.20;;;;;;;;;;5095306;28;20030;-84
2021/04/20 13:13:02;;;;;;;9.57;5.38;;;;;;;;;;5095229;28;20081;-83
2021/04/20 13:15:30;;;;;;;8.93;5.00;;;;;;;;;;5095518;28;20032;-86
2021/04/20 13:18:00;;;;;;;11.38;5.22;;;;;;;;;;5113641;28;20380;-84
2021/04/20 13:20:28;;;;;;;10.75;5.45;;;;;;;;;;5113474;28;20020;-82
2021/04/20 13:22:54;;;;;;;9.85;5.35;;;;;;;;;;5095903;28;20028;-81
2021/04/20 13:25:21;;;;;;;9.27;5.10;;;;;;;;;;5099466;28;20042;-83
2021/04/20 13:27:49;;;;;;;12.85;6.43;;;;;;;;;;5099166;28;20523;-86
2021/04/20 13:30:20;;;;;;;13.73;6.32;;;;;;;;;;5117423;28;20023;-83
2021/04/20 13:32:48;;;;;;;9.88;5.20;;;;;;;;;;5101771;28;20491;-87
2021/04/20 13:35:19;;;;;;;8.77;5.18;;;;;;;;;;5080642;28;20145;-82
2021/04/20 13:37:46;;;;;;;8.02;4.70;;;;;;;;;;5078235;28;20062;-83
2021/04/20 13:40:14;;;;;;;10.50;5.35;;;;;;;;;;5078612;28;20032;-87
2021/04/20 13:42:41;;;;;;;10.82;5.57;;;;;;;;;;5096885;28;20055;-83
2021/04/20 13:45:10;;;;;;;10.02;5.25;;;;;;;;;;5078499;28;20028;-83
2021/04/20 13:47:36;;;;;;;8.63;5.18;;;;;;;;;;5096797;28;20543;-82
2021/04/20 13:50:04;;;;;;;8.93;5.10;;;;;;;;;;5078525;28;20465;-82
2021/04/20 13:52:31;;;;;;;9.85;5.30;;;;;;;;;;5078441;28;20043;-81
2021/04/20 13:54:59;;;;;;;14.13;7.07;;;;;;;;;;5078142;28;20085;-89
2021/04/20 13:57:38;;;;;;;9.05;5.57;;;;;;;;;;5078392;28;20119;-82
2021/04/20 14:00:14;;;;;;;10.95;5.30;;;;;;;;;;5078350;28;20056;-84
2021/04/20 14:02:47;;;;;;;12.27;6.10;;;;;;;;;;5094794;28;20052;-84
2021/04/20 14:05:14;;;;;;;9.32;5.75;;;;;;;;;;5098659;28;20032;-83
2021/04/20 14:07:44;;;;;;;7.50;4.78;;;;;;;;;;5098799;28;20047;-83
2021/04/20 14:10:18;;;;;;;9.38;4.97;;;;;;;;;;5098339;28;20028;-83
2021/04/20 14:12:49;;;;;;;8.38;4.43;;;;;;;;;;5098304;28;20032;-84
2021/04/20 14:15:28;;;;;;;9.00;5.18;;;;;;;;;;5097974;28;20392;-86
2021/04/20 14:18:00;;;;;;;8.73;5.38;;;;;;;;;;5098554;28;20028;-83
2021/04/20 14:20:28;;;;;;;10.15;4.90;;;;;;;;;;5098346;28;20076;-89
2021/04/20 14:22:56;;;;;;;8.85;5.13;;;;;;;;;;5097664;28;20490;-83
2021/04/20 14:25:22;;;;;;;9.52;4.75;;;;;;;;;;5097905;28;20023;-87
2021/04/20 14:27:55;;;;;;;9.48;4.78;;;;;;;;;;5097751;28;20085;-88
2021/04/20 14:30:25;;;;;;;8.20;4.13;;;;;;;;;;5097844;28;20368;-85
2021/04/20 14:32:52;;;;;;;8.45;4.68;;;;;;;;;;5116099;27;20030;-85
2021/04/20 14:35:19;;;;;;;13.07;4.38;;;;;;;;;;5117764;27;20744;-84
2021/04/20 14:37:46;;;;;;;6.80;3.63;;;;;;;;;;5118330;27;20142;-84
2021/04/20 14:40:16;;;;;;;6.63;4.15;;;;;;;;;;5136435;27;20059;-83